Time;durP1;ratioP1;P1;durP2;ratioP2;P2;SDS_P1;SDS_P2;PMS_P1;PMS_P2;Temp;Humidity;BMP_temperature;BMP_pressure;BME280_temperature;BME280_humidity;BME280_pressure;Samples;Min_cycle;Max_cycle;Signal;HPM_P1;HPM_P2
2022/03/21 00:01:01;;;;;;;6.10;3.97;;;-1.90;70.60;-2.10;98745.00;;;;5024879;28;20464;-82
2022/03/21 00:03:50;;;;;;;5.93;4.57;;;-2.20;71.30;-2.10;98752.00;;;;5024886;28;20426;-81
2022/03/21 00:06:40;;;;;;;6.40;4.97;;;-2.00;71.20;-1.90;98751.00;;;;5017364;28;20459;-80
2022/03/21 00:09:29;;;;;;;4.40;4.00;;;-2.00;71.00;-1.70;98752.00;;;;5030472;28;20441;-81
2022/03/21 00:12:18;;;;;;;6.13;4.07;;;-2.00;71.20;-2.10;98754.00;;;;5032255;28;20456;-82
2022/03/21 00:15:10;;;;;;;7.00;4.27;;;-1.90;71.30;-2.10;98750.00;;;;5039479;28;20432;-82
2022/03/21 00:18:02;;;;;;;9.87;5.03;;;-2.00;71.60;-2.50;98757.00;;;;5025129;28;20436;-82
2022/03/21 00:20:53;;;;;;;5.90;5.30;;;-2.10;71.80;-2.30;98757.00;;;;5030453;28;20463;-80
2022/03/21 00:23:42;;;;;;;4.80;4.30;;;-2.10;72.00;-2.40;98757.00;;;;5031262;28;20428;-82
2022/03/21 00:26:31;;;;;;;6.55;4.60;;;-2.20;72.40;-2.60;98754.00;;;;5025763;28;20445;-80
2022/03/21 00:29:20;;;;;;;6.40;4.47;;;-2.20;72.50;-2.70;98759.00;;;;5018609;28;21006;-81
2022/03/21 00:32:09;;;;;;;4.53;4.13;;;-2.30;72.80;-2.50;98767.00;;;;5028695;28;21251;-81
2022/03/21 00:34:59;;;;;;;2.60;2.40;;;-2.30;73.00;-2.50;98760.00;;;;5027793;28;20447;-82
2022/03/21 00:37:49;;;;;;;5.67;4.83;;;-2.20;73.30;-2.20;98776.00;;;;5024760;28;20441;-81
2022/03/21 00:40:38;;;;;;;7.07;5.53;;;-2.20;72.90;-2.00;98766.00;;;;5027114;28;20462;-82
2022/03/21 00:43:26;;;;;;;3.80;3.50;;;-2.20;72.80;-2.30;98759.00;;;;5017128;28;20437;-82
2022/03/21 00:46:15;;;;;;;5.57;4.83;;;-2.20;73.10;-2.50;98753.00;;;;5023967;28;20432;-80
2022/03/21 00:49:08;;;;;;;6.43;4.67;;;-2.20;74.30;-2.70;98754.00;;;;5024949;28;21230;-81
2022/03/21 00:51:58;;;;;;;8.77;5.53;;;-2.40;74.00;-2.80;98742.00;;;;5027983;28;20458;-82
2022/03/21 00:54:47;;;;;;;5.33;4.00;;;-2.40;74.40;-2.70;98756.00;;;;5026384;28;20803;-79
2022/03/21 00:57:36;;;;;;;5.77;4.57;;;-2.50;74.50;-2.80;98750.00;;;;5026290;28;20817;-82
2022/03/21 01:00:28;;;;;;;5.53;4.53;;;-2.50;74.70;-3.20;98741.00;;;;5033732;28;21151;-82
2022/03/21 01:03:17;;;;;;;9.10;5.20;;;-2.50;75.30;-3.40;98745.00;;;;5038194;28;20928;-79
2022/03/21 01:06:06;;;;;;;7.83;4.67;;;-2.60;75.90;-3.20;98744.00;;;;5028596;28;20437;-79
2022/03/21 01:08:56;;;;;;;5.20;4.03;;;-2.70;75.60;-2.90;98745.00;;;;5032188;28;20468;-79
2022/03/21 01:11:45;;;;;;;6.03;4.50;;;-2.60;75.60;-2.90;98748.00;;;;5040809;28;20453;-81
2022/03/21 01:14:34;;;;;;;5.57;4.93;;;-2.60;75.40;-3.00;98752.00;;;;5025756;28;20425;-83
2022/03/21 01:17:22;;;;;;;6.67;4.50;;;-2.50;76.10;-3.50;98740.00;;;;5025109;28;20790;-83
2022/03/21 01:20:13;;;;;;;7.77;3.83;;;-2.70;76.40;-3.40;98739.00;;;;5025241;28;20425;-83
2022/03/21 01:23:02;;;;;;;4.73;4.00;;;-2.60;76.60;-3.50;98742.00;;;;5038937;28;20432;-82
2022/03/21 01:25:52;;;;;;;5.73;5.23;;;-2.70;76.50;-3.40;98742.00;;;;5022139;28;20528;-82
2022/03/21 01:28:41;;;;;;;7.33;4.63;;;-2.90;76.90;-3.00;98752.00;;;;5038515;28;20471;-82
2022/03/21 01:31:29;;;;;;;6.27;4.60;;;-2.70;77.30;-3.00;98755.00;;;;5029522;28;20444;-81
2022/03/21 01:34:18;;;;;;;8.03;4.83;;;-2.70;77.40;-3.00;98745.00;;;;5030148;28;20428;-83
2022/03/21 01:37:07;;;;;;;5.03;4.53;;;-2.70;77.40;-3.30;98737.00;;;;5024751;28;20433;-82
2022/03/21 01:39:56;;;;;;;13.40;5.17;;;-2.70;77.30;-3.30;98745.00;;;;5025536;28;20445;-83
2022/03/21 01:42:47;;;;;;;5.67;4.73;;;-2.70;77.80;-3.80;98733.00;;;;5024948;28;20437;-81
2022/03/21 01:45:37;;;;;;;3.43;3.10;;;-2.80;78.20;-3.60;98729.00;;;;5020644;28;20432;-83
2022/03/21 01:48:26;;;;;;;5.40;3.90;;;-2.80;78.50;-3.50;98738.00;;;;5015979;28;20481;-82
2022/03/21 01:51:16;;;;;;;7.13;4.53;;;-2.80;78.70;-3.30;98726.00;;;;5028935;28;20452;-83
2022/03/21 01:57:13;;;;;;;5.00;4.50;;;-2.80;78.40;-3.30;98727.00;;;;5028606;28;20837;-83
2022/03/21 02:00:08;;;;;;;5.83;5.10;;;-2.80;78.10;-3.00;98729.00;;;;5022275;28;20844;-83
2022/03/21 02:02:57;;;;;;;6.17;4.73;;;-2.70;77.90;-3.00;98729.00;;;;5023544;28;20433;-83
2022/03/21 02:05:47;;;;;;;6.07;4.87;;;-2.70;77.60;-3.30;98712.00;;;;5022047;28;20441;-83
2022/03/21 02:08:36;;;;;;;6.63;5.33;;;-2.70;78.10;-3.80;98718.00;;;;5019143;28;20510;-82
2022/03/21 02:11:25;;;;;;;7.07;4.63;;;-2.80;78.60;-3.80;98715.00;;;;5036318;28;20448;-82
2022/03/21 02:14:14;;;;;;;6.67;4.70;;;-3.00;79.50;-4.00;98716.00;;;;5016831;28;20437;-83
2022/03/21 02:17:04;;;;;;;5.57;4.67;;;-3.10;80.20;-3.90;98711.00;;;;5028479;28;20432;-82
2022/03/21 02:19:54;;;;;;;14.43;4.93;;;-3.20;80.50;-3.80;98708.00;;;;5028339;28;20514;-83
2022/03/21 02:22:54;;;;;;;6.03;5.43;;;-3.20;81.20;-3.90;98706.00;;;;5039494;28;20958;-81
2022/03/21 02:25:46;;;;;;;7.27;5.30;;;-3.20;81.40;-3.80;98704.00;;;;5024395;28;20413;-83
2022/03/21 02:28:37;;;;;;;4.03;3.67;;;-3.30;81.50;-4.00;98702.00;;;;5029694;28;20464;-82
2022/03/21 02:31:27;;;;;;;7.83;5.67;;;-3.30;82.00;-3.80;98697.00;;;;5027996;28;20444;-81
2022/03/21 02:34:16;;;;;;;7.43;4.93;;;-3.30;82.10;-3.70;98695.00;;;;5028134;28;20932;-80
2022/03/21 02:37:09;;;;;;;6.93;5.00;;;-3.30;82.10;-3.50;98703.00;;;;5024536;28;20802;-83
2022/03/21 02:40:00;;;;;;;5.37;4.43;;;-3.20;82.50;-3.60;98689.00;;;;5025979;28;20448;-82
2022/03/21 02:42:50;;;;;;;5.63;4.57;;;-3.20;82.10;-3.90;98691.00;;;;5021944;28;20429;-82
2022/03/21 02:45:40;;;;;;;9.87;5.33;;;-3.20;81.80;-4.00;98689.00;;;;5020721;28;20935;-81
2022/03/21 02:48:29;;;;;;;6.57;4.17;;;-3.20;82.50;-3.90;98675.00;;;;5023895;28;20436;-81
2022/03/21 02:51:21;;;;;;;14.67;4.80;;;-3.30;82.70;-4.50;98670.00;;;;5012411;28;20453;-82
2022/03/21 02:54:10;;;;;;;8.27;5.27;;;-3.30;83.20;-4.50;98669.00;;;;5018370;28;20424;-82
2022/03/21 02:57:00;;;;;;;2.07;1.97;;;-3.40;84.10;-4.40;98675.00;;;;5027908;28;20429;-81
2022/03/21 02:59:50;;;;;;;4.23;3.77;;;-3.50;84.80;-4.40;98686.00;;;;5021936;28;20436;-83
2022/03/21 03:02:39;;;;;;;6.47;4.37;;;-3.50;85.40;-4.00;98678.00;;;;5019167;28;20986;-81
2022/03/21 03:05:28;;;;;;;6.30;4.70;;;-3.50;85.10;-3.90;98685.00;;;;5021892;28;20424;-83
2022/03/21 03:08:17;;;;;;;7.07;4.67;;;-3.50;84.40;-3.90;98685.00;;;;5017344;28;20437;-81
2022/03/21 03:11:06;;;;;;;6.30;4.53;;;-3.40;84.30;-3.80;98680.00;;;;5032558;28;20455;-83
2022/03/21 03:13:55;;;;;;;9.40;5.73;;;-3.40;83.90;-4.10;98674.00;;;;5020444;28;20413;-82
2022/03/21 03:16:45;;;;;;;6.73;4.43;;;-3.40;84.20;-4.00;98680.00;;;;5027758;28;20443;-82
2022/03/21 03:19:34;;;;;;;3.53;3.23;;;-3.40;84.20;-4.20;98674.00;;;;5024964;28;20459;-82
2022/03/21 03:22:25;;;;;;;4.97;4.47;;;-3.50;85.30;-4.10;98671.00;;;;5017804;28;20448;-81
2022/03/21 03:25:14;;;;;;;6.20;5.60;;;-3.50;85.30;-3.90;98689.00;;;;5019134;28;20421;-83
2022/03/21 03:28:04;;;;;;;6.43;4.43;;;-3.50;85.20;-3.90;98679.00;;;;5022364;28;20428;-82
2022/03/21 03:30:54;;;;;;;6.27;5.63;;;-3.50;85.10;-3.90;98675.00;;;;5019087;28;20468;-82
2022/03/21 03:33:45;;;;;;;5.20;4.70;;;-3.50;85.20;-3.90;98674.00;;;;5015954;28;20784;-81
2022/03/21 03:36:34;;;;;;;5.27;4.50;;;-3.50;85.60;-3.90;98676.00;;;;5026827;28;20424;-84
2022/03/21 03:39:23;;;;;;;6.07;4.53;;;-3.50;85.40;-3.80;98681.00;;;;5037495;28;20441;-83
2022/03/21 03:42:12;;;;;;;8.47;5.20;;;-3.40;85.30;-3.90;98682.00;;;;5032812;28;20445;-83
2022/03/21 03:45:01;;;;;;;7.30;4.67;;;-3.40;85.10;-3.90;98671.00;;;;5026823;28;20437;-83
2022/03/21 03:47:49;;;;;;;7.03;5.43;;;-3.40;84.50;-3.70;98680.00;;;;5030226;28;20434;-82
2022/03/21 03:50:40;;;;;;;7.07;5.63;;;-3.40;85.10;-4.40;98675.00;;;;5027268;28;20482;-84
2022/03/21 03:53:28;;;;;;;5.90;4.30;;;-3.50;84.60;-4.60;98668.00;;;;5021877;28;20435;-82
2022/03/21 03:56:17;;;;;;;4.60;3.73;;;-3.50;85.60;-4.40;98667.00;;;;5031779;28;20462;-83
2022/03/21 03:59:06;;;;;;;6.20;4.63;;;-3.60;86.60;-4.70;98661.00;;;;5029059;28;20440;-83
2022/03/21 04:01:55;;;;;;;9.83;5.70;;;-3.70;87.20;-4.70;98668.00;;;;5034629;28;20463;-84
2022/03/21 04:04:44;;;;;;;6.50;5.90;;;-3.80;87.60;-4.50;98663.00;;;;5037182;28;20429;-84
2022/03/21 04:07:34;;;;;;;7.87;4.80;;;-3.80;87.90;-4.90;98675.00;;;;5029648;28;20948;-84
2022/03/21 04:10:23;;;;;;;9.17;4.93;;;-3.90;88.30;-5.00;98670.00;;;;5038605;28;20456;-83
2022/03/21 04:13:12;;;;;;;7.53;4.93;;;-3.90;89.10;-4.70;98667.00;;;;5028951;28;20432;-83
2022/03/21 04:16:01;;;;;;;5.30;4.33;;;-4.00;89.50;-4.60;98671.00;;;;5025219;28;20452;-84
2022/03/21 04:18:49;;;;;;;5.13;4.63;;;-4.00;89.60;-4.40;98677.00;;;;5038751;28;20433;-83
2022/03/21 04:21:46;;;;;;;6.00;4.00;;;-3.90;89.40;-4.30;98680.00;;;;5029765;28;20463;-84
2022/03/21 04:24:37;;;;;;;5.43;4.83;;;-3.80;89.40;-4.30;98674.00;;;;5032608;28;20801;-83
2022/03/21 04:27:25;;;;;;;6.53;4.70;;;-3.80;89.10;-4.40;98669.00;;;;5037100;28;20424;-84
2022/03/21 04:30:14;;;;;;;5.27;4.33;;;-3.70;88.70;-5.00;98667.00;;;;5023757;28;20461;-83
2022/03/21 04:33:03;;;;;;;6.70;5.80;;;-3.80;89.10;-5.20;98662.00;;;;5023606;28;20443;-83
2022/03/21 04:35:52;;;;;;;9.37;6.20;;;-4.00;90.00;-5.00;98658.00;;;;5024973;28;20450;-84
2022/03/21 04:38:41;;;;;;;7.97;4.73;;;-4.10;90.40;-5.20;98668.00;;;;5035349;28;20446;-83
2022/03/21 04:41:31;;;;;;;7.40;4.80;;;-4.20;90.30;-5.20;98660.00;;;;5032440;28;20479;-84
2022/03/21 04:44:20;;;;;;;5.33;4.23;;;-4.30;90.80;-5.10;98676.00;;;;5030533;28;20420;-84
2022/03/21 04:47:09;;;;;;;4.63;4.17;;;-4.20;91.10;-5.00;98661.00;;;;5034406;28;20422;-83
2022/03/21 04:49:58;;;;;;;4.90;4.50;;;-4.30;91.20;-4.90;98672.00;;;;5030107;28;20479;-83
2022/03/21 04:52:47;;;;;;;6.77;5.33;;;-4.20;91.40;-4.90;98669.00;;;;5031933;28;20430;-84
2022/03/21 04:55:37;;;;;;;6.23;5.30;;;-4.20;91.50;-5.10;98681.00;;;;5031385;28;21082;-84
2022/03/21 04:58:27;;;;;;;2.40;2.20;;;-4.30;91.50;-5.40;98674.00;;;;5033489;28;20432;-84
2022/03/21 05:01:16;;;;;;;7.07;5.20;;;-4.40;91.80;-5.10;98683.00;;;;5033780;28;22144;-82
2022/03/21 05:04:05;;;;;;;8.07;4.83;;;-4.60;92.00;-5.00;98685.00;;;;5028251;28;20428;-83
2022/03/21 05:06:54;;;;;;;7.03;6.30;;;-4.40;92.10;-4.80;98685.00;;;;5025493;28;20799;-84
2022/03/21 05:09:43;;;;;;;6.57;5.43;;;-4.30;92.20;-5.00;98686.00;;;;5037728;28;20435;-83
2022/03/21 05:12:32;;;;;;;11.70;5.00;;;-4.30;92.10;-5.10;98687.00;;;;5027529;28;20467;-83
2022/03/21 05:15:22;;;;;;;7.47;4.87;;;-4.30;92.30;-4.90;98696.00;;;;5046954;28;20475;-82
2022/03/21 05:18:11;;;;;;;5.43;4.20;;;-4.30;92.30;-4.90;98692.00;;;;5033079;28;20476;-83
2022/03/21 05:21:00;;;;;;;16.10;5.53;;;-4.00;92.60;-4.90;98692.00;;;;5028978;28;20448;-83
2022/03/21 05:35:56;;;;;;;4.23;3.77;;;-4.50;94.20;-5.30;98700.00;;;;5044001;28;20968;-70
2022/03/21 05:38:46;;;;;;;9.17;5.57;;;-4.40;93.90;-4.80;98706.00;;;;5043452;28;20493;-70
2022/03/21 05:41:34;;;;;;;11.07;6.80;;;-4.40;94.10;-4.60;98706.00;;;;5047472;28;20825;-70
2022/03/21 05:44:24;;;;;;;5.63;4.90;;;-4.30;94.00;-4.60;98697.00;;;;5047584;28;20439;-70
2022/03/21 05:47:12;;;;;;;6.70;5.17;;;-4.20;93.80;-4.90;98701.00;;;;5044937;28;20445;-70
2022/03/21 05:50:03;;;;;;;6.77;4.33;;;-4.10;94.00;-5.20;98705.00;;;;5049987;28;20954;-71
2022/03/21 05:52:52;;;;;;;3.73;3.13;;;-4.20;94.10;-5.30;98704.00;;;;5048566;28;20808;-71
2022/03/21 05:55:44;;;;;;;2.50;2.30;;;-4.20;94.20;-5.10;98699.00;;;;5045521;28;20434;-71
2022/03/21 05:58:32;;;;;;;2.00;1.90;;;-4.20;94.30;-4.80;98706.00;;;;5042921;28;20420;-71
2022/03/21 06:01:22;;;;;;;5.33;3.97;;;-4.10;94.20;-4.70;98719.00;;;;5045687;28;20886;-71
2022/03/21 06:04:11;;;;;;;4.07;3.13;;;-3.90;94.20;-4.70;98711.00;;;;5044920;28;20474;-71
2022/03/21 06:07:01;;;;;;;4.20;3.43;;;-3.90;94.10;-4.60;98708.00;;;;5045126;28;20432;-71
2022/03/21 06:09:52;;;;;;;7.10;5.47;;;-3.90;94.30;-4.20;98711.00;;;;5051594;28;20427;-71
2022/03/21 06:12:42;;;;;;;6.17;4.80;;;-3.80;94.10;-3.90;98702.00;;;;5047847;28;20439;-71
2022/03/21 06:15:31;;;;;;;4.80;4.33;;;-3.60;93.80;-3.80;98703.00;;;;5049947;28;20432;-71
2022/03/21 06:18:19;;;;;;;5.03;4.20;;;-3.50;93.40;-3.60;98710.00;;;;5040492;28;20423;-71
2022/03/21 06:21:10;;;;;;;5.43;4.53;;;-3.30;93.20;-3.60;98710.00;;;;5050236;28;20451;-71
2022/03/21 06:24:00;;;;;;;10.53;5.83;;;-3.20;92.70;-3.70;98711.00;;;;5045586;28;20431;-71
2022/03/21 06:26:50;;;;;;;6.77;5.30;;;-3.00;92.20;-3.30;98707.00;;;;5046216;28;20810;-71
2022/03/21 06:29:41;;;;;;;5.67;4.80;;;-3.00;92.10;-3.40;98709.00;;;;5033802;28;20440;-72
2022/03/21 06:32:30;;;;;;;7.03;5.10;;;-2.90;91.90;-3.00;98719.00;;;;5040851;28;20451;-71
2022/03/21 06:35:19;;;;;;;6.77;5.03;;;-2.70;91.80;-2.90;98725.00;;;;5047352;28;20423;-71
2022/03/21 06:38:10;;;;;;;8.43;5.23;;;-2.60;91.90;-2.70;98722.00;;;;5043560;28;20427;-71
2022/03/21 06:41:00;;;;;;;7.20;4.73;;;-2.50;91.40;-2.60;98716.00;;;;5038782;28;20447;-71
2022/03/21 06:43:50;;;;;;;11.53;5.93;;;-2.30;91.10;-2.50;98717.00;;;;5042428;28;20455;-71
2022/03/21 06:46:39;;;;;;;5.43;4.93;;;-2.20;90.80;-2.80;98707.00;;;;5049022;28;20432;-71
2022/03/21 06:49:30;;;;;;;8.13;4.83;;;-2.10;90.50;-2.60;98728.00;;;;5043854;28;20440;-71
2022/03/21 06:52:19;;;;;;;5.47;4.10;;;-2.10;90.40;-2.30;98731.00;;;;5030606;28;21027;-70
2022/03/21 06:55:10;;;;;;;6.50;5.00;;;-2.10;90.20;-2.30;98733.00;;;;5055164;28;20442;-70
2022/03/21 06:58:01;;;;;;;4.17;3.77;;;-1.90;90.10;-2.40;98737.00;;;;5044477;28;20424;-70
2022/03/21 07:00:50;;;;;;;7.03;5.07;;;-1.90;90.20;-2.50;98735.00;;;;5047845;28;20478;-70
2022/03/21 07:03:39;;;;;;;5.33;4.33;;;-1.80;90.10;-1.90;98747.00;;;;5039623;28;20429;-70
2022/03/21 07:06:28;;;;;;;7.30;4.60;;;-1.70;90.10;-1.60;98745.00;;;;5052175;28;20423;-71
2022/03/21 07:09:16;;;;;;;5.20;4.70;;;-1.50;90.00;-1.50;98738.00;;;;5045481;28;20821;-71
2022/03/21 07:12:06;;;;;;;6.97;4.33;;;-1.40;88.10;-1.30;98745.00;;;;5044552;28;20474;-71
2022/03/21 07:14:56;;;;;;;6.67;4.00;;;-1.20;87.00;-1.20;98740.00;;;;5051964;28;20427;-71
2022/03/21 07:17:45;;;;;;;8.80;4.93;;;-1.00;86.40;-1.10;98742.00;;;;5052382;28;20956;-71
2022/03/21 07:20:34;;;;;;;5.90;5.30;;;-0.90;85.60;-0.80;98748.00;;;;5052735;28;20423;-71
2022/03/21 07:23:23;;;;;;;6.50;5.50;;;-0.80;85.50;-0.60;98743.00;;;;5052332;28;20429;-71
2022/03/21 07:26:12;;;;;;;8.20;5.90;;;-0.60;85.50;-0.20;98759.00;;;;5052614;28;20439;-71
2022/03/21 07:29:02;;;;;;;6.13;5.53;;;-0.40;84.20;0.00;98750.00;;;;5056622;28;20471;-71
2022/03/21 07:31:54;;;;;;;14.20;5.77;;;-0.10;84.20;0.40;98758.00;;;;5060819;28;20472;-71
2022/03/21 07:34:43;;;;;;;8.33;4.80;;;0.10;84.10;0.50;98765.00;;;;5052930;28;20423;-71
2022/03/21 07:37:40;;;;;;;13.67;5.27;;;0.30;84.40;0.70;98771.00;;;;5053137;28;20948;-71
2022/03/21 07:40:29;;;;;;;13.30;6.07;;;0.60;83.70;1.10;98763.00;;;;5050906;28;20823;-71
2022/03/21 07:43:18;;;;;;;8.23;5.53;;;0.80;82.60;1.20;98767.00;;;;5043973;28;20427;-71
2022/03/21 07:49:15;;;;;;;10.23;6.27;;;1.30;79.50;1.60;98756.00;;;;5049877;28;20778;-72
2022/03/21 07:52:04;;;;;;;8.00;5.90;;;1.50;78.90;1.80;98756.00;;;;5054134;28;20473;-72
2022/03/21 07:54:54;;;;;;;5.83;5.20;;;1.70;77.80;1.70;98753.00;;;;5047210;28;20426;-72
2022/03/21 07:57:43;;;;;;;5.17;4.23;;;1.90;77.10;1.50;98747.00;;;;5052718;28;20454;-72
2022/03/21 08:00:32;;;;;;;9.00;6.57;;;2.00;75.70;1.50;98749.00;;;;5052944;28;20415;-72
2022/03/21 08:03:21;;;;;;;11.70;6.63;;;2.10;74.20;2.00;98753.00;;;;5052410;28;20427;-72
2022/03/21 08:06:11;;;;;;;9.47;6.10;;;2.10;74.10;2.50;98762.00;;;;5050872;28;20511;-72
2022/03/21 08:09:00;;;;;;;13.03;6.43;;;2.20;74.80;2.80;98747.00;;;;5051673;28;20423;-72
2022/03/21 08:11:49;;;;;;;9.53;5.60;;;2.40;74.10;3.40;98752.00;;;;5056037;28;20825;-72
2022/03/21 08:14:38;;;;;;;17.50;7.37;;;2.70;74.00;3.90;98753.00;;;;5060342;28;20432;-72
2022/03/21 08:17:27;;;;;;;11.13;6.37;;;3.00;73.40;4.10;98744.00;;;;5058471;28;20467;-72
2022/03/21 08:20:18;;;;;;;10.70;6.33;;;3.30;72.70;4.60;98759.00;;;;5060184;28;20669;-72
2022/03/21 08:23:11;;;;;;;11.00;6.73;;;3.60;71.90;5.10;98756.00;;;;5058489;28;20427;-72
2022/03/21 08:26:00;;;;;;;12.97;6.40;;;4.00;70.60;5.20;98761.00;;;;5058455;28;20963;-72
2022/03/21 08:28:49;;;;;;;7.10;6.00;;;4.40;67.20;5.40;98761.00;;;;5058310;28;20411;-72
2022/03/21 08:31:38;;;;;;;10.37;6.77;;;4.70;65.50;5.70;98766.00;;;;5055242;28;20236;-72
2022/03/21 08:34:27;;;;;;;10.60;6.73;;;4.90;61.50;5.90;98769.00;;;;5045308;28;20199;-72
2022/03/21 08:37:17;;;;;;;11.07;6.77;;;5.20;61.40;6.20;98755.00;;;;5047313;28;20203;-72
2022/03/21 08:40:09;;;;;;;5.70;4.97;;;5.40;60.70;6.60;98766.00;;;;5037994;28;20681;-72
2022/03/21 08:42:59;;;;;;;6.37;5.70;;;5.60;60.70;6.80;98768.00;;;;5051685;28;20214;-72
2022/03/21 08:45:48;;;;;;;6.93;5.57;;;5.80;58.70;6.90;98770.00;;;;5049465;28;20223;-72
2022/03/21 08:51:54;;;;;;;6.70;5.00;;;6.20;57.10;7.60;98771.00;;;;5036103;28;20232;-72
2022/03/21 08:54:42;;;;;;;7.30;6.23;;;7.10;57.80;7.80;98778.00;;;;5045456;28;20211;-72
2022/03/21 08:57:33;;;;;;;6.43;4.83;;;6.70;57.00;7.40;98776.00;;;;5048260;28;20205;-72
2022/03/21 09:00:22;;;;;;;7.37;5.67;;;6.90;55.30;6.30;98763.00;;;;5047552;28;20197;-73
2022/03/21 09:03:10;;;;;;;6.63;5.37;;;7.00;51.00;7.00;98771.00;;;;5044076;28;20698;-72
2022/03/21 09:05:59;;;;;;;8.27;5.80;;;6.90;51.70;7.40;98776.00;;;;5050628;28;20200;-72
2022/03/21 09:08:49;;;;;;;5.40;4.40;;;7.00;51.90;6.40;98763.00;;;;5050665;28;20581;-73
2022/03/21 09:11:38;;;;;;;8.57;6.23;;;7.00;50.90;7.40;98776.00;;;;5049943;28;20271;-72
2022/03/21 09:14:28;;;;;;;7.43;6.23;;;7.00;51.50;8.00;98772.00;;;;5059488;28;20432;-71
2022/03/21 09:17:17;;;;;;;6.67;5.60;;;7.20;51.90;8.30;98777.00;;;;5058932;28;20234;-71
2022/03/21 09:20:08;;;;;;;9.43;6.57;;;7.40;51.70;8.20;98771.00;;;;5039827;28;20208;-70
2022/03/21 09:22:57;;;;;;;7.87;5.57;;;7.50;51.40;8.30;98770.00;;;;5058989;28;20216;-71
2022/03/21 09:25:46;;;;;;;7.73;5.50;;;7.70;51.00;8.80;98769.00;;;;5052394;28;20238;-71
2022/03/21 09:28:35;;;;;;;9.07;6.37;;;7.90;50.90;8.70;98763.00;;;;5054105;28;20195;-71
2022/03/21 09:31:25;;;;;;;10.87;5.43;;;8.10;49.50;8.30;98758.00;;;;5051684;28;20232;-71
2022/03/21 09:34:27;;;;;;;9.50;5.80;;;8.10;48.60;8.60;98763.00;;;;5041662;28;20342;-71
2022/03/21 09:37:16;;;;;;;5.23;4.73;;;8.30;49.10;8.50;98757.00;;;;5040656;28;20209;-71
2022/03/21 09:40:07;;;;;;;8.03;5.90;;;8.30;48.40;9.10;98749.00;;;;5047752;28;20212;-71
2022/03/21 09:42:56;;;;;;;8.30;5.47;;;8.40;47.50;9.60;98751.00;;;;5047250;28;20561;-71
2022/03/21 09:45:48;;;;;;;7.20;5.90;;;8.50;47.80;9.90;98758.00;;;;5045940;28;20765;-71
2022/03/21 09:48:38;;;;;;;6.63;4.87;;;8.80;48.60;9.40;98747.00;;;;5047489;28;20188;-71
2022/03/21 09:51:28;;;;;;;9.73;6.43;;;9.00;47.50;9.90;98747.00;;;;5043275;28;20220;-71
2022/03/21 09:54:17;;;;;;;7.20;5.30;;;9.10;46.40;9.70;98743.00;;;;5050082;28;20589;-71
2022/03/21 09:57:06;;;;;;;6.80;5.70;;;9.30;45.10;10.30;98743.00;;;;5049930;28;20668;-71
2022/03/21 09:59:57;;;;;;;6.23;5.37;;;9.40;45.80;9.80;98736.00;;;;5049764;28;20201;-71
2022/03/21 10:02:46;;;;;;;11.33;5.50;;;9.50;45.40;10.30;98743.00;;;;5048185;28;20201;-71
2022/03/21 10:05:38;;;;;;;5.80;4.93;;;9.60;45.20;10.50;98737.00;;;;5049968;28;20285;-71
2022/03/21 10:08:29;;;;;;;7.70;5.90;;;9.70;45.10;11.20;98745.00;;;;5048662;28;20717;-71
2022/03/21 10:11:23;;;;;;;8.03;6.00;;;9.90;45.70;10.20;98731.00;;;;5048128;28;20216;-71
2022/03/21 10:14:29;;;;;;;6.33;5.03;;;10.00;44.40;10.50;98728.00;;;;5048383;28;20219;-71
2022/03/21 10:17:24;;;;;;;6.77;5.53;;;9.90;44.70;10.50;98734.00;;;;5040703;28;20705;-71
2022/03/21 10:20:15;;;;;;;8.87;6.17;;;10.20;44.00;11.00;98725.00;;;;5038638;28;20197;-71
2022/03/21 10:23:22;;;;;;;7.17;6.00;;;10.30;44.30;9.50;98718.00;;;;5044578;28;20220;-71
2022/03/21 10:26:28;;;;;;;6.13;5.47;;;10.00;42.10;11.30;98712.00;;;;5047561;28;20212;-71
2022/03/21 10:29:17;;;;;;;7.63;5.13;;;10.10;44.10;11.40;98705.00;;;;5043577;28;20196;-70
2022/03/21 10:32:07;;;;;;;7.63;5.60;;;10.30;43.50;11.90;98710.00;;;;5041829;28;20221;-71
2022/03/21 10:35:02;;;;;;;8.10;5.27;;;10.50;43.80;11.60;98706.00;;;;5049164;28;20655;-71
2022/03/21 10:37:53;;;;;;;7.30;5.13;;;10.90;44.20;9.50;98687.00;;;;5046238;28;20247;-71
2022/03/21 10:40:47;;;;;;;8.50;5.87;;;10.70;41.70;11.20;98692.00;;;;5045602;28;20224;-71
2022/03/21 10:43:36;;;;;;;9.30;5.57;;;10.60;42.90;12.00;98689.00;;;;5046108;28;20675;-71
2022/03/21 10:46:25;;;;;;;7.47;5.50;;;10.80;43.60;11.90;98685.00;;;;5040504;28;20208;-71
2022/03/21 10:49:14;;;;;;;6.83;6.10;;;11.00;42.70;11.90;98683.00;;;;5040664;28;20208;-71
2022/03/21 10:52:05;;;;;;;12.50;6.13;;;11.40;43.00;12.20;98678.00;;;;5045463;28;20221;-71
2022/03/21 10:54:57;;;;;;;6.93;6.20;;;11.50;40.80;11.60;98677.00;;;;5047744;28;20585;-71
2022/03/21 10:57:47;;;;;;;9.47;6.10;;;11.60;41.50;12.70;98670.00;;;;5049199;28;20200;-72
2022/03/21 11:00:36;;;;;;;9.57;7.60;;;11.80;42.90;12.50;98669.00;;;;5048353;28;20200;-71
2022/03/21 11:03:25;;;;;;;10.07;6.17;;;12.10;41.40;13.70;98673.00;;;;5048552;28;20204;-72
2022/03/21 11:06:14;;;;;;;7.47;5.27;;;12.40;41.50;13.10;98663.00;;;;5049661;28;20201;-72
2022/03/21 11:09:03;;;;;;;10.43;6.20;;;12.70;40.70;14.20;98666.00;;;;5046335;28;21004;-73
2022/03/21 11:11:52;;;;;;;6.97;5.80;;;13.00;41.10;14.50;98667.00;;;;5040437;28;20228;-71
2022/03/21 11:14:42;;;;;;;8.53;7.00;;;13.30;38.70;12.30;98649.00;;;;5041326;28;20224;-72
2022/03/21 11:17:31;;;;;;;7.70;5.80;;;13.40;39.50;13.60;98656.00;;;;5043848;28;20220;-71
2022/03/21 11:20:20;;;;;;;10.73;6.27;;;13.30;39.80;13.60;98638.00;;;;5048408;28;20205;-71
2022/03/21 11:23:09;;;;;;;9.90;5.90;;;13.50;39.20;13.90;98644.00;;;;5046926;28;20208;-68
2022/03/21 11:26:04;;;;;;;7.00;6.33;;;13.60;38.80;13.50;98655.00;;;;5050396;28;20223;-72
2022/03/21 11:29:17;;;;;;;7.30;6.20;;;13.70;39.10;14.40;98640.00;;;;5047976;28;20214;-71
2022/03/21 11:32:28;;;;;;;8.90;5.60;;;14.00;39.00;16.40;98641.00;;;;5055714;28;20216;-72
2022/03/21 11:35:25;;;;;;;10.17;5.97;;;14.30;39.80;14.50;98624.00;;;;5055822;28;20196;-72
2022/03/21 11:38:24;;;;;;;8.07;6.20;;;14.70;38.20;15.80;98637.00;;;;5048943;28;20221;-71
2022/03/21 11:41:21;;;;;;;7.27;5.67;;;14.90;38.30;15.50;98633.00;;;;5053854;28;20668;-72
2022/03/21 11:44:14;;;;;;;7.87;6.10;;;15.00;38.60;13.80;98616.00;;;;5054220;28;20209;-71
2022/03/21 11:47:26;;;;;;;9.67;6.53;;;14.90;36.40;15.30;98627.00;;;;5049307;28;20210;-71
2022/03/21 11:50:27;;;;;;;8.37;6.70;;;15.10;37.90;16.10;98632.00;;;;5050530;28;20211;-71
2022/03/21 11:53:18;;;;;;;9.57;6.23;;;15.40;37.90;15.20;98617.00;;;;5055877;28;20224;-71
2022/03/21 11:56:07;;;;;;;7.43;6.23;;;15.70;37.20;15.70;98615.00;;;;5058359;28;20203;-70
2022/03/21 11:58:56;;;;;;;7.27;5.73;;;15.80;36.10;17.20;98614.00;;;;5053471;28;20196;-71
2022/03/21 12:01:48;;;;;;;7.07;5.63;;;16.00;36.80;17.50;98624.00;;;;5055379;28;20252;-71
2022/03/21 12:04:39;;;;;;;7.13;5.53;;;16.20;36.60;17.50;98622.00;;;;5049055;28;20240;-72
2022/03/21 12:07:29;;;;;;;6.40;5.67;;;16.50;35.90;17.20;98604.00;;;;5049269;28;20578;-71
2022/03/21 12:10:38;;;;;;;7.07;6.07;;;16.70;35.70;14.00;98588.00;;;;5046556;28;20197;-70
2022/03/21 12:13:27;;;;;;;6.90;4.77;;;15.90;34.10;14.20;98582.00;;;;5048734;28;20226;-71
2022/03/21 12:16:20;;;;;;;10.37;6.43;;;15.60;34.40;17.10;98581.00;;;;5049256;28;20200;-70
2022/03/21 12:19:09;;;;;;;7.67;4.63;;;15.60;35.40;18.20;98586.00;;;;5051998;28;20663;-71
2022/03/21 12:22:40;;;;;;;7.00;5.60;;;16.10;35.80;16.50;98577.00;;;;5049260;28;20213;-71
2022/03/21 12:25:51;;;;;;;8.00;5.63;;;16.40;35.00;17.80;98572.00;;;;5050679;28;20583;-71
2022/03/21 12:32:24;;;;;;;6.27;5.67;;;17.00;34.60;19.10;98562.00;;;;5041877;28;20334;-72
2022/03/21 12:36:04;;;;;;;6.43;5.83;;;17.50;34.10;20.10;98556.00;;;;5048111;28;20197;-71
2022/03/21 12:38:55;;;;;;;6.33;5.63;;;17.90;35.30;19.90;98558.00;;;;5045743;28;20214;-71
2022/03/21 12:41:47;;;;;;;6.45;5.85;;;18.60;35.20;17.80;98559.00;;;;5046046;28;20733;-70
2022/03/21 12:44:36;;;;;;;6.43;5.82;;;18.40;33.20;19.20;98555.00;;;;5046159;28;20417;-70
2022/03/21 12:47:25;;;;;;;8.50;6.68;;;18.50;32.90;19.60;98562.00;;;;5048107;28;20390;-71
2022/03/21 12:50:21;;;;;;;6.10;5.43;;;18.60;34.90;16.20;98548.00;;;;5045299;28;20211;-71
2022/03/21 12:53:11;;;;;;;7.80;6.23;;;18.40;32.10;18.90;98547.00;;;;5047377;28;20208;-70
2022/03/21 12:56:07;;;;;;;7.30;5.83;;;18.30;30.90;18.40;98540.00;;;;5048140;28;20196;-71
2022/03/21 12:59:01;;;;;;;5.90;5.30;;;18.20;32.60;19.50;98542.00;;;;5048180;28;20201;-70
2022/03/21 13:01:50;;;;;;;7.13;5.43;;;18.20;32.90;19.50;98542.00;;;;5046654;28;20213;-70
2022/03/21 13:10:53;;;;;;;7.83;6.83;;;16.50;32.80;16.30;98513.00;;;;5048206;28;20231;-71
2022/03/21 13:13:43;;;;;;;5.77;5.17;;;16.20;33.60;15.90;98515.00;;;;5044173;28;20243;-71